Time,TemperatureF,DewpointF,PressureIn,WindDirection,WindDirectionDegrees,WindSpeedMPH,WindSpeedGustMPH,Humidity,HourlyPrecipIn,Conditions,Clouds,dailyrainin,SoftwareType,DateUTC
2013-04-21 00:06:00,22.8,21.6,30.37,NE,45,0.0,-999.0,95,-99.99,,,0.00,Acu-Link.com,2013-04-21 04:06:00,
2013-04-21 00:21:00,22.5,21.0,30.37,SSE,157,0.0,-999.0,94,-99.99,,,0.00,Acu-Link.com,2013-04-21 04:21:00,
2013-04-21 00:36:00,22.1,20.1,30.38,ESE,112,0.0,-999.0,92,-99.99,,,0.00,Acu-Link.com,2013-04-21 04:36:00,
2013-04-21 00:51:00,21.6,19.6,30.38,ESE,112,0.0,-999.0,92,-99.99,,,0.00,Acu-Link.com,2013-04-21 04:51:00,
2013-04-21 01:06:00,20.8,19.4,30.39,ESE,112,0.0,-999.0,94,-99.99,,,0.00,Acu-Link.com,2013-04-21 05:06:00,
2013-04-21 01:21:00,20.8,19.1,30.39,ESE,112,0.0,-999.0,93,-99.99,,,0.00,Acu-Link.com,2013-04-21 05:21:00,
2013-04-21 01:37:00,21.0,19.6,30.39,ESE,112,0.0,-999.0,94,-99.99,,,0.00,Acu-Link.com,2013-04-21 05:37:00,
2013-04-21 01:52:00,20.7,19.3,30.40,SSE,157,0.0,-999.0,94,-99.99,,,0.00,Acu-Link.com,2013-04-21 05:52:00,
2013-04-21 02:07:00,20.3,19.6,30.40,ESE,112,0.0,-999.0,97,-99.99,,,0.00,Acu-Link.com,2013-04-21 06:07:00,
2013-04-21 02:22:00,19.9,18.9,30.41,SE,135,0.0,-999.0,96,-99.99,,,0.00,Acu-Link.com,2013-04-21 06:22:00,
2013-04-21 02:37:00,19.8,19.1,30.41,ESE,112,0.0,-999.0,97,-99.99,,,0.00,Acu-Link.com,2013-04-21 06:37:00,
2013-04-21 02:52:00,19.9,19.2,30.41,SSE,157,0.0,-999.0,97,-99.99,,,0.00,Acu-Link.com,2013-04-21 06:52:00,
2013-04-21 03:07:00,21.2,21.0,30.42,South,180,0.0,-999.0,99,-99.99,,,0.00,Acu-Link.com,2013-04-21 07:07:00,
2013-04-21 03:22:00,20.1,19.4,30.42,SSE,157,0.0,-999.0,97,-99.99,,,0.00,Acu-Link.com,2013-04-21 07:22:00,
2013-04-21 03:37:00,19.8,18.8,30.43,South,180,0.0,-999.0,96,-99.99,,,0.00,Acu-Link.com,2013-04-21 07:37:00,
2013-04-21 03:53:00,19.0,17.8,30.43,SSE,157,0.0,-999.0,95,-99.99,,,0.00,Acu-Link.com,2013-04-21 07:53:00,
2013-04-21 04:08:00,18.9,18.0,30.43,South,180,0.0,-999.0,96,-99.99,,,0.00,Acu-Link.com,2013-04-21 08:08:00,
2013-04-21 04:23:00,19.0,17.8,30.44,South,180,0.0,-999.0,95,-99.99,,,0.00,Acu-Link.com,2013-04-21 08:23:00,
2013-04-21 04:38:00,18.9,17.7,30.44,SSE,157,0.0,-999.0,95,-99.99,,,0.00,Acu-Link.com,2013-04-21 08:38:00,
2013-04-21 04:53:00,18.9,18.4,30.45,SE,135,0.0,-999.0,98,-99.99,,,0.00,Acu-Link.com,2013-04-21 08:53:00,
2013-04-21 05:08:00,19.6,19.4,30.45,SSE,157,0.0,-999.0,99,-99.99,,,0.00,Acu-Link.com,2013-04-21 09:08:00,
2013-04-21 05:23:00,19.6,19.4,30.46,South,180,0.0,-999.0,99,-99.99,,,0.00,Acu-Link.com,2013-04-21 09:23:00,
2013-04-21 05:38:00,19.2,18.5,30.46,South,180,0.0,-999.0,97,-99.99,,,0.00,Acu-Link.com,2013-04-21 09:38:00,
2013-04-21 05:53:00,18.9,18.0,30.46,South,180,0.0,-999.0,96,-99.99,,,0.00,Acu-Link.com,2013-04-21 09:53:00,
2013-04-21 06:09:00,18.7,17.8,30.46,SSE,157,0.0,-999.0,96,-99.99,,,0.00,Acu-Link.com,2013-04-21 10:09:00,
2013-04-21 06:24:00,19.4,19.2,30.47,SSW,202,0.0,-999.0,99,-99.99,,,0.00,Acu-Link.com,2013-04-21 10:24:00,
2013-04-21 06:39:00,19.4,19.2,30.48,South,180,0.0,-999.0,99,-99.99,,,0.00,Acu-Link.com,2013-04-21 10:39:00,
2013-04-21 06:54:00,18.7,17.8,30.49,South,180,0.0,-999.0,96,-99.99,,,0.00,Acu-Link.com,2013-04-21 10:54:00,
2013-04-21 07:09:00,19.4,18.4,30.50,South,180,0.0,-999.0,96,-99.99,,,0.00,Acu-Link.com,2013-04-21 11:09:00,
2013-04-21 07:24:00,22.1,21.6,30.51,South,180,0.0,-999.0,98,-99.99,,,0.00,Acu-Link.com,2013-04-21 11:24:00,
2013-04-21 07:39:00,23.0,22.5,30.51,South,180,0.0,-999.0,98,-99.99,,,0.00,Acu-Link.com,2013-04-21 11:39:00,
2013-04-21 07:54:00,23.9,22.9,30.52,South,180,0.0,-999.0,96,-99.99,,,0.00,Acu-Link.com,2013-04-21 11:54:00,
2013-04-21 08:09:00,25.3,24.3,30.53,South,180,0.0,-999.0,96,-99.99,,,0.00,Acu-Link.com,2013-04-21 12:09:00,
2013-04-21 08:25:00,28.0,26.8,30.54,SE,135,0.0,-999.0,95,-99.99,,,0.00,Acu-Link.com,2013-04-21 12:25:00,
2013-04-21 08:40:00,29.8,28.3,30.54,SE,135,1.7,-999.0,94,-99.99,,,0.00,Acu-Link.com,2013-04-21 12:40:00,
2013-04-21 08:55:00,31.8,28.4,30.55,South,180,1.7,-999.0,87,-99.99,,,0.00,Acu-Link.com,2013-04-21 12:55:00,
2013-04-21 09:10:00,34.3,28.5,30.55,NNE,22,0.0,-999.0,79,-99.99,,,0.00,Acu-Link.com,2013-04-21 13:10:00,
2013-04-21 09:25:00,35.8,27.3,30.55,South,180,2.2,-999.0,71,-99.99,,,0.00,Acu-Link.com,2013-04-21 13:25:00,
2013-04-21 09:40:00,37.4,25.2,30.55,ESE,112,3.2,-999.0,61,-99.99,,,0.00,Acu-Link.com,2013-04-21 13:40:00,
2013-04-21 09:55:00,39.0,25.5,30.55,South,180,3.2,-999.0,58,-99.99,,,0.00,Acu-Link.com,2013-04-21 13:55:00,
2013-04-21 10:11:00,39.4,25.9,30.54,South,180,3.7,-999.0,58,-99.99,,,0.00,Acu-Link.com,2013-04-21 14:11:00,
2013-04-21 10:26:00,40.6,25.7,30.55,ESE,112,5.3,-999.0,55,-99.99,,,0.00,Acu-Link.com,2013-04-21 14:26:00,
2013-04-21 10:41:00,41.5,24.7,30.54,ESE,112,2.7,-999.0,51,-99.99,,,0.00,Acu-Link.com,2013-04-21 14:41:00,
2013-04-21 10:56:00,40.8,24.1,30.53,ESE,112,5.3,-999.0,51,-99.99,,,0.00,Acu-Link.com,2013-04-21 14:56:00,
2013-04-21 11:11:00,42.8,26.9,30.53,ENE,67,2.7,-999.0,53,-99.99,,,0.00,Acu-Link.com,2013-04-21 15:11:00,
2013-04-21 11:26:00,43.9,27.4,30.53,East,90,3.2,-999.0,52,-99.99,,,0.05,Acu-Link.com,2013-04-21 15:26:00,
2013-04-21 11:42:00,43.7,24.3,30.52,SE,135,4.2,-999.0,46,-99.99,,,0.05,Acu-Link.com,2013-04-21 15:42:00,
2013-04-21 11:57:00,45.7,28.6,30.52,SSE,157,4.2,-999.0,51,-99.99,,,0.05,Acu-Link.com,2013-04-21 15:57:00,
2013-04-21 12:12:00,45.5,26.5,30.51,South,180,2.7,-999.0,47,-99.99,,,0.05,Acu-Link.com,2013-04-21 16:12:00,
2013-04-21 12:27:00,46.2,28.1,30.50,ESE,112,4.7,-999.0,49,-99.99,,,0.05,Acu-Link.com,2013-04-21 16:27:00,
2013-04-21 12:42:00,46.4,27.3,30.50,SE,135,2.7,-999.0,47,-99.99,,,0.05,Acu-Link.com,2013-04-21 16:42:00,
2013-04-21 12:57:00,47.5,29.3,30.49,SSE,157,4.7,-999.0,49,-99.99,,,0.05,Acu-Link.com,2013-04-21 16:57:00,
2013-04-21 13:12:00,47.8,29.1,30.49,SSE,157,4.7,-999.0,48,-99.99,,,0.05,Acu-Link.com,2013-04-21 17:12:00,
2013-04-21 13:27:00,48.4,29.6,30.49,East,90,4.2,-999.0,48,-99.99,,,0.05,Acu-Link.com,2013-04-21 17:27:00,
2013-04-21 13:42:00,48.6,30.8,30.49,SSE,157,3.2,-999.0,50,-99.99,,,0.05,Acu-Link.com,2013-04-21 17:42:00,
2013-04-21 13:58:00,48.9,28.5,30.49,South,180,1.7,-999.0,45,-99.99,,,0.05,Acu-Link.com,2013-04-21 17:58:00,
2013-04-21 14:13:00,49.5,30.1,30.48,ESE,112,5.8,-999.0,47,-99.99,,,0.05,Acu-Link.com,2013-04-21 18:13:00,
2013-04-21 14:28:00,50.5,31.6,30.48,SE,135,3.2,-999.0,48,-99.99,,,0.05,Acu-Link.com,2013-04-21 18:28:00,
2013-04-21 14:43:00,49.6,27.5,30.48,West,270,4.7,-999.0,42,-99.99,,,0.05,Acu-Link.com,2013-04-21 18:43:00,
2013-04-21 14:58:00,50.9,31.9,30.47,ENE,67,4.2,-999.0,48,-99.99,,,0.05,Acu-Link.com,2013-04-21 18:58:00,
2013-04-21 15:13:00,52.2,32.6,30.46,South,180,2.2,-999.0,47,-99.99,,,0.05,Acu-Link.com,2013-04-21 19:13:00,
2013-04-21 15:28:00,51.3,30.7,30.45,South,180,3.2,-999.0,45,-99.99,,,0.05,Acu-Link.com,2013-04-21 19:28:00,
2013-04-21 15:43:00,50.9,29.2,30.44,ESE,112,4.2,-999.0,43,-99.99,,,0.05,Acu-Link.com,2013-04-21 19:43:00,
2013-04-21 15:58:00,51.8,31.7,30.43,South,180,4.7,-999.0,46,-99.99,,,0.05,Acu-Link.com,2013-04-21 19:58:00,
2013-04-21 16:14:00,50.9,28.0,30.43,NE,45,2.7,-999.0,41,-99.99,,,0.05,Acu-Link.com,2013-04-21 20:14:00,
2013-04-21 16:29:00,51.1,27.6,30.42,South,180,3.7,-999.0,40,-99.99,,,0.05,Acu-Link.com,2013-04-21 20:29:00,
2013-04-21 16:44:00,51.4,27.9,30.41,SSE,157,2.7,-999.0,40,-99.99,,,0.05,Acu-Link.com,2013-04-21 20:44:00,
2013-04-21 16:59:00,51.4,27.3,30.41,ESE,112,5.3,-999.0,39,-99.99,,,0.05,Acu-Link.com,2013-04-21 20:59:00,
2013-04-21 17:14:00,51.1,27.6,30.40,South,180,4.2,-999.0,40,-99.99,,,0.05,Acu-Link.com,2013-04-21 21:14:00,
2013-04-21 17:29:00,51.6,29.3,30.40,ESE,112,5.8,-999.0,42,-99.99,,,0.05,Acu-Link.com,2013-04-21 21:29:00,
2013-04-21 17:45:00,51.3,27.8,30.40,South,180,2.2,-999.0,40,-99.99,,,0.05,Acu-Link.com,2013-04-21 21:45:00,
2013-04-21 18:00:00,51.1,27.6,30.39,South,180,4.2,-999.0,40,-99.99,,,0.05,Acu-Link.com,2013-04-21 22:00:00,
2013-04-21 18:15:00,53.1,26.9,30.40,SSE,157,5.3,-999.0,36,-99.99,,,0.05,Acu-Link.com,2013-04-21 22:15:00,
2013-04-21 18:30:00,54.1,27.7,30.39,SSE,157,2.7,-999.0,36,-99.99,,,0.05,Acu-Link.com,2013-04-21 22:30:00,
2013-04-21 18:45:00,53.2,26.9,30.39,SSE,157,3.7,-999.0,36,-99.99,,,0.05,Acu-Link.com,2013-04-21 22:45:00,
2013-04-21 19:00:00,50.9,25.6,30.38,South,180,4.2,-999.0,37,-99.99,,,0.05,Acu-Link.com,2013-04-21 23:00:00,
2013-04-21 19:16:00,49.6,28.0,30.38,East,90,2.7,-999.0,43,-99.99,,,0.05,Acu-Link.com,2013-04-21 23:16:00,
2013-04-21 19:31:00,47.8,27.0,30.39,ESE,112,5.3,-999.0,44,-99.99,,,0.05,Acu-Link.com,2013-04-21 23:31:00,
2013-04-21 19:46:00,46.8,27.1,30.39,SSE,157,3.2,-999.0,46,-99.99,,,0.05,Acu-Link.com,2013-04-21 23:46:00,
2013-04-21 20:01:00,44.8,26.3,30.38,ESE,112,2.7,-999.0,48,-99.99,,,0.05,Acu-Link.com,2013-04-22 00:01:00,
2013-04-21 20:16:00,43.0,26.6,30.38,South,180,2.2,-999.0,52,-99.99,,,0.05,Acu-Link.com,2013-04-22 00:16:00,
2013-04-21 20:31:00,41.5,27.0,30.38,SE,135,2.7,-999.0,56,-99.99,,,0.05,Acu-Link.com,2013-04-22 00:31:00,
2013-04-21 20:46:00,40.6,27.0,30.38,SSW,202,2.7,-999.0,58,-99.99,,,0.05,Acu-Link.com,2013-04-22 00:46:00,
2013-04-21 21:01:00,39.9,27.2,30.39,South,180,2.7,-999.0,60,-99.99,,,0.05,Acu-Link.com,2013-04-22 01:01:00,
2013-04-21 21:16:00,39.4,27.1,30.39,SSE,157,2.2,-999.0,61,-99.99,,,0.05,Acu-Link.com,2013-04-22 01:16:00,
2013-04-21 21:32:00,38.7,26.4,30.40,ESE,112,2.7,-999.0,61,-99.99,,,0.05,Acu-Link.com,2013-04-22 01:32:00,
2013-04-21 21:47:00,37.9,25.7,30.40,SSW,202,2.2,-999.0,61,-99.99,,,0.05,Acu-Link.com,2013-04-22 01:47:00,
2013-04-21 22:02:00,37.2,25.4,30.40,SSW,202,1.7,-999.0,62,-99.99,,,0.05,Acu-Link.com,2013-04-22 02:02:00,
2013-04-21 22:17:00,36.3,24.5,30.40,SE,135,2.7,-999.0,62,-99.99,,,0.05,Acu-Link.com,2013-04-22 02:17:00,
2013-04-21 22:32:00,36.0,24.6,30.40,SSW,202,1.1,-999.0,63,-99.99,,,0.05,Acu-Link.com,2013-04-22 02:32:00,
2013-04-21 22:47:00,35.2,24.6,30.40,SE,135,0.0,-999.0,65,-99.99,,,0.05,Acu-Link.com,2013-04-22 02:47:00,
2013-04-21 23:02:00,34.5,24.7,30.39,South,180,0.0,-999.0,67,-99.99,,,0.05,Acu-Link.com,2013-04-22 03:02:00,
2013-04-21 23:18:00,33.6,24.9,30.38,SSE,157,1.1,-999.0,70,-99.99,,,0.05,Acu-Link.com,2013-04-22 03:18:00,
2013-04-21 23:33:00,33.8,25.4,30.38,ESE,112,1.7,-999.0,71,-99.99,,,0.05,Acu-Link.com,2013-04-22 03:33:00,
2013-04-21 23:48:00,33.6,25.2,30.38,ESE,112,2.2,-999.0,71,-99.99,,,0.05,Acu-Link.com,2013-04-22 03:48:00,